sensor_id;sensor_type;location;lat;lon;timestamp;pressure;altitude;pressure_sealevel;temperature;humidity
55801;BME280;41730;51.960;20.158;2023-02-19T00:00:49;99727.94;;;4.27;77.53
55801;BME280;41730;51.960;20.158;2023-02-19T00:03:21;99728.68;;;4.24;77.54
55801;BME280;41730;51.960;20.158;2023-02-19T00:05:55;99724.04;;;4.15;77.77
55801;BME280;41730;51.960;20.158;2023-02-19T00:08:27;99731.98;;;4.16;77.77
55801;BME280;41730;51.960;20.158;2023-02-19T00:11:05;99728.45;;;4.22;77.61
55801;BME280;41730;51.960;20.158;2023-02-19T00:13:39;99731.79;;;4.05;78.21
55801;BME280;41730;51.960;20.158;2023-02-19T00:16:22;99721.45;;;4.04;78.24
55801;BME280;41730;51.960;20.158;2023-02-19T00:18:56;99715.63;;;4.09;78.27
55801;BME280;41730;51.960;20.158;2023-02-19T00:21:31;99713.59;;;4.16;77.82
55801;BME280;41730;51.960;20.158;2023-02-19T00:24:06;99710.83;;;4.10;77.98
55801;BME280;41730;51.960;20.158;2023-02-19T00:26:47;99709.02;;;4.03;78.21
55801;BME280;41730;51.960;20.158;2023-02-19T00:29:21;99715.59;;;4.03;78.25
55801;BME280;41730;51.960;20.158;2023-02-19T00:31:54;99699.71;;;4.02;78.09
55801;BME280;41730;51.960;20.158;2023-02-19T00:34:28;99704.81;;;4.09;77.86
55801;BME280;41730;51.960;20.158;2023-02-19T00:37:02;99708.69;;;4.19;77.71
55801;BME280;41730;51.960;20.158;2023-02-19T00:39:40;99710.56;;;4.12;77.74
55801;BME280;41730;51.960;20.158;2023-02-19T00:42:15;99703.65;;;3.97;78.22
55801;BME280;41730;51.960;20.158;2023-02-19T00:44:47;99707.02;;;3.96;78.33
55801;BME280;41730;51.960;20.158;2023-02-19T00:47:22;99702.88;;;3.93;78.35
55801;BME280;41730;51.960;20.158;2023-02-19T00:49:54;99703.10;;;4.04;78.06
55801;BME280;41730;51.960;20.158;2023-02-19T00:52:26;99707.12;;;4.03;77.94
55801;BME280;41730;51.960;20.158;2023-02-19T00:54:58;99708.31;;;4.03;77.89
55801;BME280;41730;51.960;20.158;2023-02-19T00:57:30;99707.96;;;3.95;77.97
55801;BME280;41730;51.960;20.158;2023-02-19T01:00:02;99701.55;;;3.92;78.17
55801;BME280;41730;51.960;20.158;2023-02-19T01:02:35;99697.13;;;3.85;78.33
55801;BME280;41730;51.960;20.158;2023-02-19T01:05:08;99690.43;;;3.87;78.19
55801;BME280;41730;51.960;20.158;2023-02-19T01:07:40;99684.17;;;3.88;78.16
55801;BME280;41730;51.960;20.158;2023-02-19T01:10:11;99686.85;;;3.86;78.15
55801;BME280;41730;51.960;20.158;2023-02-19T01:12:43;99683.08;;;3.94;77.88
55801;BME280;41730;51.960;20.158;2023-02-19T01:15:15;99688.45;;;3.99;77.52
55801;BME280;41730;51.960;20.158;2023-02-19T01:17:47;99689.42;;;3.84;77.72
55801;BME280;41730;51.960;20.158;2023-02-19T01:20:19;99692.42;;;3.80;77.84
55801;BME280;41730;51.960;20.158;2023-02-19T01:22:52;99694.02;;;3.74;77.96
55801;BME280;41730;51.960;20.158;2023-02-19T01:25:24;99695.49;;;3.76;77.98
55801;BME280;41730;51.960;20.158;2023-02-19T01:27:59;99696.06;;;3.86;77.42
55801;BME280;41730;51.960;20.158;2023-02-19T01:30:32;99694.48;;;3.97;77.09
55801;BME280;41730;51.960;20.158;2023-02-19T01:33:09;99694.02;;;3.96;76.91
55801;BME280;41730;51.960;20.158;2023-02-19T01:35:43;99693.59;;;4.00;76.76
55801;BME280;41730;51.960;20.158;2023-02-19T01:38:15;99699.47;;;3.84;77.09
55801;BME280;41730;51.960;20.158;2023-02-19T01:40:56;99704.32;;;3.76;77.42
55801;BME280;41730;51.960;20.158;2023-02-19T01:43:29;99695.85;;;3.81;77.18
55801;BME280;41730;51.960;20.158;2023-02-19T01:46:02;99698.72;;;3.96;76.69
55801;BME280;41730;51.960;20.158;2023-02-19T01:48:35;99702.60;;;3.87;76.85
55801;BME280;41730;51.960;20.158;2023-02-19T01:51:11;99706.69;;;3.80;77.00
55801;BME280;41730;51.960;20.158;2023-02-19T01:53:46;99705.11;;;3.66;77.29
55801;BME280;41730;51.960;20.158;2023-02-19T01:56:21;99703.23;;;3.74;77.19
55801;BME280;41730;51.960;20.158;2023-02-19T01:58:56;99705.21;;;3.76;76.87
55801;BME280;41730;51.960;20.158;2023-02-19T02:01:29;99703.46;;;3.73;76.97
55801;BME280;41730;51.960;20.158;2023-02-19T02:04:01;99701.00;;;3.79;76.60
55801;BME280;41730;51.960;20.158;2023-02-19T02:06:38;99702.20;;;3.79;76.49
55801;BME280;41730;51.960;20.158;2023-02-19T02:09:11;99700.67;;;3.84;76.22
55801;BME280;41730;51.960;20.158;2023-02-19T02:12:00;99710.97;;;3.75;76.29
55801;BME280;41730;51.960;20.158;2023-02-19T02:14:35;99714.02;;;3.73;76.40
55801;BME280;41730;51.960;20.158;2023-02-19T02:17:12;99708.86;;;3.70;76.31
55801;BME280;41730;51.960;20.158;2023-02-19T02:20:08;99713.26;;;3.75;76.14
55801;BME280;41730;51.960;20.158;2023-02-19T02:22:53;99709.45;;;3.74;75.99
55801;BME280;41730;51.960;20.158;2023-02-19T02:29:00;99692.95;;;3.97;75.36
55801;BME280;41730;51.960;20.158;2023-02-19T02:31:42;99691.58;;;4.05;74.79
55801;BME280;41730;51.960;20.158;2023-02-19T02:34:15;99687.83;;;4.01;74.77
55801;BME280;41730;51.960;20.158;2023-02-19T02:36:51;99681.78;;;3.84;75.12
55801;BME280;41730;51.960;20.158;2023-02-19T02:39:26;99679.06;;;3.78;75.37
55801;BME280;41730;51.960;20.158;2023-02-19T02:41:59;99675.16;;;3.79;75.37
55801;BME280;41730;51.960;20.158;2023-02-19T02:44:48;99668.56;;;3.87;75.20
55801;BME280;41730;51.960;20.158;2023-02-19T02:47:36;99668.12;;;3.86;75.05
55801;BME280;41730;51.960;20.158;2023-02-19T02:50:17;99667.20;;;3.92;75.17
55801;BME280;41730;51.960;20.158;2023-02-19T02:52:52;99665.42;;;4.12;74.26
55801;BME280;41730;51.960;20.158;2023-02-19T02:55:48;99668.84;;;4.24;73.93
55801;BME280;41730;51.960;20.158;2023-02-19T02:58:23;99668.38;;;4.12;73.93
55801;BME280;41730;51.960;20.158;2023-02-19T03:00:59;99668.77;;;4.00;74.50
55801;BME280;41730;51.960;20.158;2023-02-19T03:03:52;99671.27;;;4.02;74.62
55801;BME280;41730;51.960;20.158;2023-02-19T03:06:26;99669.69;;;3.97;74.75
55801;BME280;41730;51.960;20.158;2023-02-19T03:09:04;99671.80;;;3.99;74.68
55801;BME280;41730;51.960;20.158;2023-02-19T03:11:40;99674.09;;;4.04;74.59
55801;BME280;41730;51.960;20.158;2023-02-19T03:14:36;99677.84;;;4.08;74.50
55801;BME280;41730;51.960;20.158;2023-02-19T03:17:30;99675.11;;;4.13;74.25
55801;BME280;41730;51.960;20.158;2023-02-19T03:20:24;99680.61;;;4.19;74.31
55801;BME280;41730;51.960;20.158;2023-02-19T03:22:58;99674.41;;;4.21;73.85
55801;BME280;41730;51.960;20.158;2023-02-19T03:25:32;99668.91;;;4.17;73.99
55801;BME280;41730;51.960;20.158;2023-02-19T03:28:25;99665.54;;;4.21;73.99
55801;BME280;41730;51.960;20.158;2023-02-19T03:31:14;99664.15;;;4.16;74.12
55801;BME280;41730;51.960;20.158;2023-02-19T03:33:54;99660.49;;;4.21;74.00
55801;BME280;41730;51.960;20.158;2023-02-19T03:36:32;99658.34;;;4.19;73.88
55801;BME280;41730;51.960;20.158;2023-02-19T03:39:09;99646.63;;;4.11;74.15
55801;BME280;41730;51.960;20.158;2023-02-19T03:41:47;99648.77;;;4.12;74.22
55801;BME280;41730;51.960;20.158;2023-02-19T03:44:26;99645.52;;;4.06;74.22
55801;BME280;41730;51.960;20.158;2023-02-19T03:47:07;99648.52;;;4.02;74.41
55801;BME280;41730;51.960;20.158;2023-02-19T03:49:45;99650.34;;;4.15;74.06
55801;BME280;41730;51.960;20.158;2023-02-19T03:52:23;99640.70;;;4.14;73.88
55801;BME280;41730;51.960;20.158;2023-02-19T03:55:00;99634.23;;;4.03;74.14
55801;BME280;41730;51.960;20.158;2023-02-19T03:57:38;99634.14;;;3.83;74.65
55801;BME280;41730;51.960;20.158;2023-02-19T04:00:18;99634.17;;;3.80;74.98
55801;BME280;41730;51.960;20.158;2023-02-19T04:02:55;99627.98;;;3.71;75.00
55801;BME280;41730;51.960;20.158;2023-02-19T04:05:31;99632.54;;;3.76;74.97
55801;BME280;41730;51.960;20.158;2023-02-19T04:08:08;99631.84;;;3.79;74.83
55801;BME280;41730;51.960;20.158;2023-02-19T04:10:42;99634.88;;;3.74;74.96
55801;BME280;41730;51.960;20.158;2023-02-19T04:13:21;99626.73;;;3.74;75.03
55801;BME280;41730;51.960;20.158;2023-02-19T04:16:01;99627.45;;;3.82;74.83
55801;BME280;41730;51.960;20.158;2023-02-19T04:18:38;99628.89;;;3.84;74.57
55801;BME280;41730;51.960;20.158;2023-02-19T04:21:12;99637.79;;;3.89;74.41
55801;BME280;41730;51.960;20.158;2023-02-19T04:23:49;99621.91;;;3.74;74.65
55801;BME280;41730;51.960;20.158;2023-02-19T04:26:23;99629.61;;;3.78;74.69
55801;BME280;41730;51.960;20.158;2023-02-19T04:36:12;99627.43;;;3.96;74.06
55801;BME280;41730;51.960;20.158;2023-02-19T04:38:51;99629.88;;;3.98;73.80
55801;BME280;41730;51.960;20.158;2023-02-19T04:41:25;99629.91;;;3.87;73.96
55801;BME280;41730;51.960;20.158;2023-02-19T04:43:56;99625.77;;;3.81;73.99
55801;BME280;41730;51.960;20.158;2023-02-19T04:46:28;99629.67;;;3.75;74.34
55801;BME280;41730;51.960;20.158;2023-02-19T04:49:01;99628.72;;;3.70;74.36
55801;BME280;41730;51.960;20.158;2023-02-19T04:51:33;99630.25;;;3.76;74.60
55801;BME280;41730;51.960;20.158;2023-02-19T04:54:05;99625.40;;;3.79;74.11
55801;BME280;41730;51.960;20.158;2023-02-19T04:56:37;99619.26;;;3.64;74.66
55801;BME280;41730;51.960;20.158;2023-02-19T04:59:10;99618.73;;;3.67;74.58
55801;BME280;41730;51.960;20.158;2023-02-19T05:01:43;99623.73;;;3.73;74.30
55801;BME280;41730;51.960;20.158;2023-02-19T05:04:16;99616.58;;;3.62;74.58
55801;BME280;41730;51.960;20.158;2023-02-19T05:06:48;99609.14;;;3.57;74.61
55801;BME280;41730;51.960;20.158;2023-02-19T05:09:20;99603.79;;;3.59;74.61
55801;BME280;41730;51.960;20.158;2023-02-19T05:11:54;99599.86;;;3.58;74.59
55801;BME280;41730;51.960;20.158;2023-02-19T05:14:30;99588.10;;;3.52;74.65
55801;BME280;41730;51.960;20.158;2023-02-19T05:17:01;99597.13;;;3.52;74.85
55801;BME280;41730;51.960;20.158;2023-02-19T05:19:33;99589.36;;;3.62;74.54
55801;BME280;41730;51.960;20.158;2023-02-19T05:22:06;99586.07;;;3.73;74.26
55801;BME280;41730;51.960;20.158;2023-02-19T05:24:38;99577.77;;;3.71;74.16
55801;BME280;41730;51.960;20.158;2023-02-19T05:27:10;99571.87;;;3.59;74.39
55801;BME280;41730;51.960;20.158;2023-02-19T05:29:42;99573.57;;;3.60;74.49
55801;BME280;41730;51.960;20.158;2023-02-19T05:32:14;99576.02;;;3.62;74.24
55801;BME280;41730;51.960;20.158;2023-02-19T05:34:47;99577.33;;;3.72;74.08
55801;BME280;41730;51.960;20.158;2023-02-19T05:37:20;99575.45;;;3.74;74.01
55801;BME280;41730;51.960;20.158;2023-02-19T05:39:52;99572.56;;;3.73;73.72
55801;BME280;41730;51.960;20.158;2023-02-19T05:42:24;99577.71;;;3.71;73.93
55801;BME280;41730;51.960;20.158;2023-02-19T05:44:58;99584.60;;;3.66;73.90
55801;BME280;41730;51.960;20.158;2023-02-19T05:47:32;99588.69;;;3.62;74.14
55801;BME280;41730;51.960;20.158;2023-02-19T05:50:04;99593.94;;;3.58;74.06
55801;BME280;41730;51.960;20.158;2023-02-19T05:52:37;99592.85;;;3.54;74.47
55801;BME280;41730;51.960;20.158;2023-02-19T05:55:09;99587.08;;;3.54;74.23
55801;BME280;41730;51.960;20.158;2023-02-19T05:57:42;99588.99;;;3.71;73.98
55801;BME280;41730;51.960;20.158;2023-02-19T06:00:17;99605.72;;;3.75;73.61
55801;BME280;41730;51.960;20.158;2023-02-19T06:02:49;99606.64;;;3.63;73.98
55801;BME280;41730;51.960;20.158;2023-02-19T06:05:23;99615.13;;;3.60;74.06
55801;BME280;41730;51.960;20.158;2023-02-19T06:07:56;99618.23;;;3.47;74.52
55801;BME280;41730;51.960;20.158;2023-02-19T06:10:28;99616.70;;;3.52;74.35
55801;BME280;41730;51.960;20.158;2023-02-19T06:13:00;99615.80;;;3.61;74.19
55801;BME280;41730;51.960;20.158;2023-02-19T06:15:34;99615.85;;;3.63;73.92
55801;BME280;41730;51.960;20.158;2023-02-19T06:18:07;99611.87;;;3.52;74.35
55801;BME280;41730;51.960;20.158;2023-02-19T06:20:43;99611.07;;;3.53;74.58
55801;BME280;41730;51.960;20.158;2023-02-19T06:23:15;99598.17;;;3.66;74.09
55801;BME280;41730;51.960;20.158;2023-02-19T06:25:46;99601.24;;;3.72;73.88
55801;BME280;41730;51.960;20.158;2023-02-19T06:28:21;99600.30;;;3.70;73.97
55801;BME280;41730;51.960;20.158;2023-02-19T06:30:58;99592.60;;;3.74;73.93
55801;BME280;41730;51.960;20.158;2023-02-19T06:33:33;99597.67;;;3.76;74.17
55801;BME280;41730;51.960;20.158;2023-02-19T06:36:05;99596.98;;;3.81;74.03
55801;BME280;41730;51.960;20.158;2023-02-19T06:38:38;99599.79;;;3.83;74.23
55801;BME280;41730;51.960;20.158;2023-02-19T06:41:16;99602.01;;;3.92;74.35
55801;BME280;41730;51.960;20.158;2023-02-19T06:43:51;99597.23;;;3.88;74.54
55801;BME280;41730;51.960;20.158;2023-02-19T06:46:27;99615.02;;;4.03;74.51
55801;BME280;41730;51.960;20.158;2023-02-19T06:48:59;99624.98;;;4.04;74.36
55801;BME280;41730;51.960;20.158;2023-02-19T06:51:31;99617.52;;;3.99;74.21
55801;BME280;41730;51.960;20.158;2023-02-19T06:54:22;99618.66;;;3.95;74.26
55801;BME280;41730;51.960;20.158;2023-02-19T06:56:55;99626.90;;;3.99;74.28
55801;BME280;41730;51.960;20.158;2023-02-19T06:59:30;99621.27;;;4.00;74.20
55801;BME280;41730;51.960;20.158;2023-02-19T07:02:02;99634.63;;;4.11;73.86
55801;BME280;41730;51.960;20.158;2023-02-19T07:04:34;99631.86;;;4.11;73.89
55801;BME280;41730;51.960;20.158;2023-02-19T07:07:10;99634.77;;;4.03;73.96
55801;BME280;41730;51.960;20.158;2023-02-19T07:09:44;99632.04;;;4.05;73.95
55801;BME280;41730;51.960;20.158;2023-02-19T07:12:16;99621.73;;;4.04;73.92
55801;BME280;41730;51.960;20.158;2023-02-19T07:14:48;99623.04;;;4.05;73.73
55801;BME280;41730;51.960;20.158;2023-02-19T07:17:21;99629.84;;;4.10;73.83
55801;BME280;41730;51.960;20.158;2023-02-19T07:19:53;99630.84;;;4.08;74.10
55801;BME280;41730;51.960;20.158;2023-02-19T07:22:25;99632.88;;;4.09;74.08
55801;BME280;41730;51.960;20.158;2023-02-19T07:24:58;99633.88;;;4.17;74.05
55801;BME280;41730;51.960;20.158;2023-02-19T07:27:31;99635.80;;;4.19;73.82
55801;BME280;41730;51.960;20.158;2023-02-19T07:30:05;99625.31;;;4.10;74.02
55801;BME280;41730;51.960;20.158;2023-02-19T07:32:41;99634.38;;;4.09;74.19
55801;BME280;41730;51.960;20.158;2023-02-19T07:35:15;99636.60;;;4.13;74.23
55801;BME280;41730;51.960;20.158;2023-02-19T07:37:47;99638.48;;;4.29;73.73
55801;BME280;41730;51.960;20.158;2023-02-19T07:40:19;99644.05;;;4.21;73.94
55801;BME280;41730;51.960;20.158;2023-02-19T07:42:54;99642.11;;;4.13;74.24
55801;BME280;41730;51.960;20.158;2023-02-19T07:45:27;99644.36;;;4.05;74.61
55801;BME280;41730;51.960;20.158;2023-02-19T07:47:59;99645.77;;;4.16;74.48
55801;BME280;41730;51.960;20.158;2023-02-19T07:50:35;99641.52;;;4.28;74.09
55801;BME280;41730;51.960;20.158;2023-02-19T07:53:08;99635.90;;;4.28;73.88
55801;BME280;41730;51.960;20.158;2023-02-19T07:55:41;99647.46;;;4.37;74.01
55801;BME280;41730;51.960;20.158;2023-02-19T07:58:13;99646.42;;;4.37;73.99
55801;BME280;41730;51.960;20.158;2023-02-19T08:00:45;99646.70;;;4.33;74.11
55801;BME280;41730;51.960;20.158;2023-02-19T08:03:17;99647.20;;;4.28;74.27
55801;BME280;41730;51.960;20.158;2023-02-19T08:05:49;99646.40;;;4.32;73.99
55801;BME280;41730;51.960;20.158;2023-02-19T08:08:26;99652.64;;;4.43;73.75
55801;BME280;41730;51.960;20.158;2023-02-19T08:11:01;99654.90;;;4.51;73.57
55801;BME280;41730;51.960;20.158;2023-02-19T08:13:53;99651.88;;;4.54;73.52
55801;BME280;41730;51.960;20.158;2023-02-19T08:16:25;99655.61;;;4.59;73.21
55801;BME280;41730;51.960;20.158;2023-02-19T08:19:11;99662.23;;;4.68;73.29
55801;BME280;41730;51.960;20.158;2023-02-19T08:21:45;99664.41;;;4.78;72.92
55801;BME280;41730;51.960;20.158;2023-02-19T08:24:17;99666.33;;;4.75;73.05
55801;BME280;41730;51.960;20.158;2023-02-19T08:26:49;99669.66;;;4.82;73.05
55801;BME280;41730;51.960;20.158;2023-02-19T08:29:20;99670.52;;;4.87;72.92
55801;BME280;41730;51.960;20.158;2023-02-19T08:31:52;99673.58;;;4.94;72.77
55801;BME280;41730;51.960;20.158;2023-02-19T08:34:24;99670.81;;;4.91;73.10
55801;BME280;41730;51.960;20.158;2023-02-19T08:36:57;99665.84;;;4.90;72.73
55801;BME280;41730;51.960;20.158;2023-02-19T08:39:32;99666.83;;;4.93;73.04
55801;BME280;41730;51.960;20.158;2023-02-19T08:42:07;99666.73;;;5.08;72.75
55801;BME280;41730;51.960;20.158;2023-02-19T08:44:42;99667.46;;;5.07;72.73
55801;BME280;41730;51.960;20.158;2023-02-19T08:47:15;99671.58;;;5.03;72.84
55801;BME280;41730;51.960;20.158;2023-02-19T08:49:47;99669.80;;;4.96;73.22
55801;BME280;41730;51.960;20.158;2023-02-19T08:52:19;99668.68;;;4.94;73.10
55801;BME280;41730;51.960;20.158;2023-02-19T08:54:51;99663.64;;;4.94;72.67
55801;BME280;41730;51.960;20.158;2023-02-19T08:57:23;99671.25;;;5.05;72.47
55801;BME280;41730;51.960;20.158;2023-02-19T08:59:55;99673.66;;;5.05;72.37
55801;BME280;41730;51.960;20.158;2023-02-19T09:02:27;99669.80;;;5.06;72.67
55801;BME280;41730;51.960;20.158;2023-02-19T09:05:01;99657.90;;;5.09;72.65
55801;BME280;41730;51.960;20.158;2023-02-19T09:07:34;99661.42;;;5.21;72.34
55801;BME280;41730;51.960;20.158;2023-02-19T09:10:09;99665.14;;;5.28;72.32
55801;BME280;41730;51.960;20.158;2023-02-19T09:12:41;99658.77;;;5.35;71.99
55801;BME280;41730;51.960;20.158;2023-02-19T09:15:13;99662.52;;;5.38;71.39
55801;BME280;41730;51.960;20.158;2023-02-19T09:17:45;99665.08;;;5.44;71.47
55801;BME280;41730;51.960;20.158;2023-02-19T09:20:21;99665.69;;;5.47;71.00
55801;BME280;41730;51.960;20.158;2023-02-19T09:22:57;99668.13;;;5.53;71.03
55801;BME280;41730;51.960;20.158;2023-02-19T09:25:30;99669.16;;;5.53;71.11
55801;BME280;41730;51.960;20.158;2023-02-19T09:28:03;99670.29;;;5.66;71.20
55801;BME280;41730;51.960;20.158;2023-02-19T09:30:35;99668.13;;;5.79;71.30
55801;BME280;41730;51.960;20.158;2023-02-19T09:33:08;99668.39;;;5.88;71.04
55801;BME280;41730;51.960;20.158;2023-02-19T09:35:40;99668.78;;;5.95;69.93
55801;BME280;41730;51.960;20.158;2023-02-19T09:38:13;99672.95;;;6.00;69.93
55801;BME280;41730;51.960;20.158;2023-02-19T09:40:45;99673.89;;;6.06;69.99
55801;BME280;41730;51.960;20.158;2023-02-19T09:43:19;99672.27;;;6.07;69.63
55801;BME280;41730;51.960;20.158;2023-02-19T09:45:56;99674.02;;;6.00;69.80
55801;BME280;41730;51.960;20.158;2023-02-19T09:48:32;99677.95;;;6.05;69.73
55801;BME280;41730;51.960;20.158;2023-02-19T09:51:05;99681.37;;;6.09;69.41
55801;BME280;41730;51.960;20.158;2023-02-19T09:53:43;99685.35;;;6.04;69.43
55801;BME280;41730;51.960;20.158;2023-02-19T09:56:21;99687.05;;;6.05;69.19
55801;BME280;41730;51.960;20.158;2023-02-19T09:58:57;99683.45;;;6.13;68.41
55801;BME280;41730;51.960;20.158;2023-02-19T10:01:33;99686.32;;;6.08;68.34
55801;BME280;41730;51.960;20.158;2023-02-19T10:04:17;99683.15;;;6.10;68.65
55801;BME280;41730;51.960;20.158;2023-02-19T10:06:57;99684.17;;;6.21;68.02
55801;BME280;41730;51.960;20.158;2023-02-19T10:09:33;99689.36;;;6.16;67.38
55801;BME280;41730;51.960;20.158;2023-02-19T10:12:18;99691.77;;;6.00;68.14
55801;BME280;41730;51.960;20.158;2023-02-19T10:15:00;99691.69;;;6.00;68.09
55801;BME280;41730;51.960;20.158;2023-02-19T10:17:33;99693.30;;;6.03;68.17
55801;BME280;41730;51.960;20.158;2023-02-19T10:20:12;99700.94;;;6.08;67.85
55801;BME280;41730;51.960;20.158;2023-02-19T10:22:54;99702.42;;;6.09;67.54
55801;BME280;41730;51.960;20.158;2023-02-19T10:25:33;99707.92;;;6.07;67.64
55801;BME280;41730;51.960;20.158;2023-02-19T10:28:09;99699.98;;;6.18;66.96
55801;BME280;41730;51.960;20.158;2023-02-19T10:30:49;99705.55;;;6.18;66.60
55801;BME280;41730;51.960;20.158;2023-02-19T10:33:30;99709.27;;;6.12;66.49
55801;BME280;41730;51.960;20.158;2023-02-19T10:36:23;99712.57;;;6.01;66.38
55801;BME280;41730;51.960;20.158;2023-02-19T10:39:04;99719.34;;;6.11;65.87
55801;BME280;41730;51.960;20.158;2023-02-19T10:41:48;99715.65;;;6.13;65.67
55801;BME280;41730;51.960;20.158;2023-02-19T10:44:30;99723.95;;;6.14;65.59
55801;BME280;41730;51.960;20.158;2023-02-19T10:47:17;99718.34;;;6.10;65.70
55801;BME280;41730;51.960;20.158;2023-02-19T10:49:56;99717.47;;;6.05;65.58
55801;BME280;41730;51.960;20.158;2023-02-19T10:52:39;99722.79;;;6.06;65.77
55801;BME280;41730;51.960;20.158;2023-02-19T10:55:26;99724.61;;;6.17;65.84
55801;BME280;41730;51.960;20.158;2023-02-19T10:58:20;99725.11;;;6.42;65.23
55801;BME280;41730;51.960;20.158;2023-02-19T11:01:13;99726.62;;;6.59;64.58
55801;BME280;41730;51.960;20.158;2023-02-19T11:03:47;99732.42;;;6.63;64.12
55801;BME280;41730;51.960;20.158;2023-02-19T11:06:24;99731.11;;;6.43;64.94
55801;BME280;41730;51.960;20.158;2023-02-19T11:09:00;99729.35;;;6.39;65.14
55801;BME280;41730;51.960;20.158;2023-02-19T11:11:37;99732.56;;;6.37;65.32
55801;BME280;41730;51.960;20.158;2023-02-19T11:14:16;99728.02;;;6.47;64.56
55801;BME280;41730;51.960;20.158;2023-02-19T11:16:58;99732.13;;;6.53;64.01
55801;BME280;41730;51.960;20.158;2023-02-19T11:19:46;99733.33;;;6.63;63.65
55801;BME280;41730;51.960;20.158;2023-02-19T11:22:30;99733.63;;;6.73;62.88
55801;BME280;41730;51.960;20.158;2023-02-19T11:25:05;99741.86;;;6.86;62.02
55801;BME280;41730;51.960;20.158;2023-02-19T11:27:36;99744.77;;;6.82;62.10
55801;BME280;41730;51.960;20.158;2023-02-19T11:30:36;99748.45;;;6.65;62.55
55801;BME280;41730;51.960;20.158;2023-02-19T11:33:21;99748.08;;;6.63;62.43
55801;BME280;41730;51.960;20.158;2023-02-19T11:38:49;99751.41;;;6.66;62.74
55801;BME280;41730;51.960;20.158;2023-02-19T11:41:44;99754.13;;;6.64;62.55
55801;BME280;41730;51.960;20.158;2023-02-19T11:44:30;99755.79;;;6.65;62.88
55801;BME280;41730;51.960;20.158;2023-02-19T11:50:21;99760.15;;;6.63;62.23
55801;BME280;41730;51.960;20.158;2023-02-19T11:53:09;99757.69;;;6.63;62.16
55801;BME280;41730;51.960;20.158;2023-02-19T11:55:52;99757.48;;;6.61;61.88
55801;BME280;41730;51.960;20.158;2023-02-19T12:01:42;99761.84;;;6.68;61.63
55801;BME280;41730;51.960;20.158;2023-02-19T12:08:12;99767.05;;;6.47;61.54
55801;BME280;41730;51.960;20.158;2023-02-19T12:11:00;99764.35;;;6.46;61.52
55801;BME280;41730;51.960;20.158;2023-02-19T12:13:47;99768.32;;;6.46;61.47
55801;BME280;41730;51.960;20.158;2023-02-19T12:16:40;99772.48;;;6.49;61.44
55801;BME280;41730;51.960;20.158;2023-02-19T12:19:34;99782.14;;;6.43;61.77
55801;BME280;41730;51.960;20.158;2023-02-19T12:22:21;99783.02;;;6.52;61.25
55801;BME280;41730;51.960;20.158;2023-02-19T12:28:18;99790.13;;;6.67;60.79
55801;BME280;41730;51.960;20.158;2023-02-19T12:37:32;99801.17;;;6.94;61.08
55801;BME280;41730;51.960;20.158;2023-02-19T12:40:23;99803.95;;;7.21;60.04
55801;BME280;41730;51.960;20.158;2023-02-19T12:43:11;99802.73;;;7.34;59.69
55801;BME280;41730;51.960;20.158;2023-02-19T12:45:51;99809.23;;;7.50;58.63
55801;BME280;41730;51.960;20.158;2023-02-19T12:48:30;99815.60;;;7.63;57.25
55801;BME280;41730;51.960;20.158;2023-02-19T12:51:12;99814.89;;;7.39;58.12
55801;BME280;41730;51.960;20.158;2023-02-19T12:53:53;99816.70;;;7.39;58.15
55801;BME280;41730;51.960;20.158;2023-02-19T12:56:31;99818.14;;;7.40;57.78
55801;BME280;41730;51.960;20.158;2023-02-19T12:59:10;99816.20;;;7.36;57.53
55801;BME280;41730;51.960;20.158;2023-02-19T13:01:49;99817.90;;;7.46;57.45
55801;BME280;41730;51.960;20.158;2023-02-19T13:04:31;99817.29;;;7.33;56.59
55801;BME280;41730;51.960;20.158;2023-02-19T13:07:08;99817.34;;;7.07;56.59
55801;BME280;41730;51.960;20.158;2023-02-19T13:09:45;99817.79;;;6.96;57.36
55801;BME280;41730;51.960;20.158;2023-02-19T13:12:22;99822.92;;;6.93;57.76
55801;BME280;41730;51.960;20.158;2023-02-19T13:14:59;99824.14;;;6.88;58.02
55801;BME280;41730;51.960;20.158;2023-02-19T13:17:39;99825.91;;;6.92;58.09
55801;BME280;41730;51.960;20.158;2023-02-19T13:20:20;99827.05;;;7.01;58.06
55801;BME280;41730;51.960;20.158;2023-02-19T13:23:04;99822.48;;;7.06;57.95
55801;BME280;41730;51.960;20.158;2023-02-19T13:26:16;99821.73;;;7.25;57.82
55801;BME280;41730;51.960;20.158;2023-02-19T13:29:02;99824.74;;;7.41;57.15
55801;BME280;41730;51.960;20.158;2023-02-19T13:32:09;99830.22;;;7.33;56.88
55801;BME280;41730;51.960;20.158;2023-02-19T13:34:54;99837.98;;;7.32;57.38
55801;BME280;41730;51.960;20.158;2023-02-19T13:37:36;99836.83;;;7.31;56.61
55801;BME280;41730;51.960;20.158;2023-02-19T13:40:21;99837.98;;;7.13;57.41
55801;BME280;41730;51.960;20.158;2023-02-19T13:42:56;99841.00;;;6.98;57.71
55801;BME280;41730;51.960;20.158;2023-02-19T13:45:33;99838.23;;;7.03;58.10
55801;BME280;41730;51.960;20.158;2023-02-19T13:48:27;99838.71;;;7.08;58.05
55801;BME280;41730;51.960;20.158;2023-02-19T13:54:22;99850.65;;;7.30;57.90
55801;BME280;41730;51.960;20.158;2023-02-19T14:00:50;99861.05;;;7.19;57.57
55801;BME280;41730;51.960;20.158;2023-02-19T14:03:38;99864.57;;;7.19;57.41
55801;BME280;41730;51.960;20.158;2023-02-19T14:06:12;99868.37;;;7.13;57.48
55801;BME280;41730;51.960;20.158;2023-02-19T14:08:54;99878.14;;;7.08;57.52
55801;BME280;41730;51.960;20.158;2023-02-19T14:12:02;99868.76;;;7.07;56.75
55801;BME280;41730;51.960;20.158;2023-02-19T14:14:38;99881.98;;;7.03;55.98
55801;BME280;41730;51.960;20.158;2023-02-19T14:17:29;99886.52;;;7.00;56.07
55801;BME280;41730;51.960;20.158;2023-02-19T14:20:40;99889.31;;;7.03;56.34
55801;BME280;41730;51.960;20.158;2023-02-19T14:23:24;99889.21;;;7.16;56.17
55801;BME280;41730;51.960;20.158;2023-02-19T14:26:00;99892.94;;;7.03;56.39
55801;BME280;41730;51.960;20.158;2023-02-19T14:28:39;99895.62;;;6.83;56.96
55801;BME280;41730;51.960;20.158;2023-02-19T14:31:20;99901.16;;;6.86;56.95
55801;BME280;41730;51.960;20.158;2023-02-19T14:33:59;99902.13;;;6.75;57.31